sensor_id;sensor_type;location;lat;lon;timestamp;P1;durP1;ratioP1;P2;durP2;ratioP2
10126;SDS011;13080;42.608;23.362;2023-07-31T00:00:19;4.40;;;3.67;;
10126;SDS011;13080;42.608;23.362;2023-07-31T00:02:46;13.23;;;4.78;;
10126;SDS011;13080;42.608;23.362;2023-07-31T00:05:12;3.30;;;3.00;;
10126;SDS011;13080;42.608;23.362;2023-07-31T00:07:39;4.60;;;3.85;;
10126;SDS011;13080;42.608;23.362;2023-07-31T00:10:06;4.32;;;3.53;;
10126;SDS011;13080;42.608;23.362;2023-07-31T00:12:35;5.05;;;3.85;;
10126;SDS011;13080;42.608;23.362;2023-07-31T00:15:02;4.32;;;3.53;;
10126;SDS011;13080;42.608;23.362;2023-07-31T00:17:29;7.95;;;4.68;;
10126;SDS011;13080;42.608;23.362;2023-07-31T00:19:56;4.32;;;3.72;;
10126;SDS011;13080;42.608;23.362;2023-07-31T00:22:23;3.97;;;3.35;;
10126;SDS011;13080;42.608;23.362;2023-07-31T00:24:49;5.55;;;4.07;;
10126;SDS011;13080;42.608;23.362;2023-07-31T00:27:16;6.80;;;4.18;;
10126;SDS011;13080;42.608;23.362;2023-07-31T00:29:44;6.55;;;4.40;;
10126;SDS011;13080;42.608;23.362;2023-07-31T00:32:11;4.55;;;3.58;;
10126;SDS011;13080;42.608;23.362;2023-07-31T00:34:38;5.90;;;4.93;;
10126;SDS011;13080;42.608;23.362;2023-07-31T00:37:05;7.85;;;4.65;;
10126;SDS011;13080;42.608;23.362;2023-07-31T00:39:33;5.93;;;4.15;;
10126;SDS011;13080;42.608;23.362;2023-07-31T00:42:01;5.35;;;4.80;;
10126;SDS011;13080;42.608;23.362;2023-07-31T00:44:27;6.63;;;4.47;;
10126;SDS011;13080;42.608;23.362;2023-07-31T00:46:56;5.85;;;4.40;;
10126;SDS011;13080;42.608;23.362;2023-07-31T00:49:24;5.00;;;4.20;;
10126;SDS011;13080;42.608;23.362;2023-07-31T00:51:51;5.53;;;4.80;;
10126;SDS011;13080;42.608;23.362;2023-07-31T00:54:18;5.38;;;4.30;;
10126;SDS011;13080;42.608;23.362;2023-07-31T00:56:45;7.07;;;5.05;;
10126;SDS011;13080;42.608;23.362;2023-07-31T00:59:13;4.80;;;4.20;;
10126;SDS011;13080;42.608;23.362;2023-07-31T01:01:40;5.05;;;4.18;;
10126;SDS011;13080;42.608;23.362;2023-07-31T01:04:08;5.22;;;4.53;;
10126;SDS011;13080;42.608;23.362;2023-07-31T01:06:38;5.90;;;5.00;;
10126;SDS011;13080;42.608;23.362;2023-07-31T01:09:11;6.75;;;4.47;;
10126;SDS011;13080;42.608;23.362;2023-07-31T01:11:46;5.18;;;4.68;;
10126;SDS011;13080;42.608;23.362;2023-07-31T01:14:17;5.97;;;4.57;;
10126;SDS011;13080;42.608;23.362;2023-07-31T01:16:44;6.57;;;5.25;;
10126;SDS011;13080;42.608;23.362;2023-07-31T01:19:12;6.10;;;5.13;;
10126;SDS011;13080;42.608;23.362;2023-07-31T01:22:09;7.30;;;5.55;;
10126;SDS011;13080;42.608;23.362;2023-07-31T01:24:52;7.88;;;6.70;;
10126;SDS011;13080;42.608;23.362;2023-07-31T01:27:28;9.52;;;6.70;;
10126;SDS011;13080;42.608;23.362;2023-07-31T01:30:03;8.45;;;7.43;;
10126;SDS011;13080;42.608;23.362;2023-07-31T01:32:39;8.93;;;6.88;;
10126;SDS011;13080;42.608;23.362;2023-07-31T01:35:07;8.88;;;7.20;;
10126;SDS011;13080;42.608;23.362;2023-07-31T01:37:34;9.95;;;8.07;;
10126;SDS011;13080;42.608;23.362;2023-07-31T01:40:01;12.60;;;9.88;;
10126;SDS011;13080;42.608;23.362;2023-07-31T01:42:30;11.80;;;9.43;;
10126;SDS011;13080;42.608;23.362;2023-07-31T01:44:57;12.73;;;9.18;;
10126;SDS011;13080;42.608;23.362;2023-07-31T01:47:23;11.85;;;8.50;;
10126;SDS011;13080;42.608;23.362;2023-07-31T01:49:50;11.50;;;9.32;;
10126;SDS011;13080;42.608;23.362;2023-07-31T01:52:17;10.07;;;8.77;;
10126;SDS011;13080;42.608;23.362;2023-07-31T01:54:44;9.98;;;8.60;;
10126;SDS011;13080;42.608;23.362;2023-07-31T01:57:10;10.43;;;7.45;;
10126;SDS011;13080;42.608;23.362;2023-07-31T01:59:38;9.02;;;7.68;;
10126;SDS011;13080;42.608;23.362;2023-07-31T02:02:05;8.25;;;7.18;;
10126;SDS011;13080;42.608;23.362;2023-07-31T02:04:32;9.95;;;8.18;;
10126;SDS011;13080;42.608;23.362;2023-07-31T02:06:59;16.33;;;12.07;;
10126;SDS011;13080;42.608;23.362;2023-07-31T02:09:26;14.48;;;10.50;;
10126;SDS011;13080;42.608;23.362;2023-07-31T02:11:52;12.48;;;9.43;;
10126;SDS011;13080;42.608;23.362;2023-07-31T02:14:19;10.95;;;8.68;;
10126;SDS011;13080;42.608;23.362;2023-07-31T02:16:47;13.90;;;8.90;;
10126;SDS011;13080;42.608;23.362;2023-07-31T02:19:14;23.38;;;17.17;;
10126;SDS011;13080;42.608;23.362;2023-07-31T02:21:41;21.67;;;15.98;;
10126;SDS011;13080;42.608;23.362;2023-07-31T02:24:07;21.92;;;16.23;;
10126;SDS011;13080;42.608;23.362;2023-07-31T02:26:34;24.13;;;17.35;;
10126;SDS011;13080;42.608;23.362;2023-07-31T02:29:01;23.30;;;17.85;;
10126;SDS011;13080;42.608;23.362;2023-07-31T02:31:28;25.73;;;17.65;;
10126;SDS011;13080;42.608;23.362;2023-07-31T02:33:56;27.73;;;20.10;;
10126;SDS011;13080;42.608;23.362;2023-07-31T02:36:23;28.80;;;21.42;;
10126;SDS011;13080;42.608;23.362;2023-07-31T02:38:50;30.75;;;22.25;;
10126;SDS011;13080;42.608;23.362;2023-07-31T02:41:16;31.35;;;22.80;;
10126;SDS011;13080;42.608;23.362;2023-07-31T02:43:43;32.83;;;23.58;;
10126;SDS011;13080;42.608;23.362;2023-07-31T02:46:10;33.35;;;22.65;;
10126;SDS011;13080;42.608;23.362;2023-07-31T02:48:37;31.88;;;22.63;;
10126;SDS011;13080;42.608;23.362;2023-07-31T02:51:05;34.30;;;22.35;;
10126;SDS011;13080;42.608;23.362;2023-07-31T02:53:31;30.67;;;23.02;;
10126;SDS011;13080;42.608;23.362;2023-07-31T02:55:58;28.35;;;21.50;;
10126;SDS011;13080;42.608;23.362;2023-07-31T02:58:25;33.92;;;23.63;;
10126;SDS011;13080;42.608;23.362;2023-07-31T03:00:51;30.20;;;22.13;;
10126;SDS011;13080;42.608;23.362;2023-07-31T03:03:18;35.97;;;23.75;;
10126;SDS011;13080;42.608;23.362;2023-07-31T03:05:45;31.88;;;23.13;;
10126;SDS011;13080;42.608;23.362;2023-07-31T03:08:13;30.13;;;22.65;;
10126;SDS011;13080;42.608;23.362;2023-07-31T03:10:40;33.95;;;23.27;;
10126;SDS011;13080;42.608;23.362;2023-07-31T03:13:07;31.30;;;22.40;;
10126;SDS011;13080;42.608;23.362;2023-07-31T03:15:34;31.00;;;22.13;;
10126;SDS011;13080;42.608;23.362;2023-07-31T03:18:00;31.67;;;22.38;;
10126;SDS011;13080;42.608;23.362;2023-07-31T03:20:27;30.42;;;21.08;;
10126;SDS011;13080;42.608;23.362;2023-07-31T03:22:54;30.45;;;20.73;;
10126;SDS011;13080;42.608;23.362;2023-07-31T03:25:22;28.25;;;21.48;;
10126;SDS011;13080;42.608;23.362;2023-07-31T03:27:49;35.30;;;22.73;;
10126;SDS011;13080;42.608;23.362;2023-07-31T03:30:15;27.48;;;19.83;;
10126;SDS011;13080;42.608;23.362;2023-07-31T03:32:42;29.08;;;20.25;;
10126;SDS011;13080;42.608;23.362;2023-07-31T03:35:09;30.70;;;20.40;;
10126;SDS011;13080;42.608;23.362;2023-07-31T03:37:35;29.52;;;20.85;;
10126;SDS011;13080;42.608;23.362;2023-07-31T03:40:03;28.98;;;19.88;;
10126;SDS011;13080;42.608;23.362;2023-07-31T03:42:32;30.17;;;20.33;;
10126;SDS011;13080;42.608;23.362;2023-07-31T03:44:58;30.08;;;21.98;;
10126;SDS011;13080;42.608;23.362;2023-07-31T03:47:25;28.90;;;20.48;;
10126;SDS011;13080;42.608;23.362;2023-07-31T03:49:52;30.40;;;20.85;;
10126;SDS011;13080;42.608;23.362;2023-07-31T03:52:19;31.08;;;20.80;;
10126;SDS011;13080;42.608;23.362;2023-07-31T03:54:46;29.00;;;20.27;;
10126;SDS011;13080;42.608;23.362;2023-07-31T03:57:13;29.73;;;20.27;;
10126;SDS011;13080;42.608;23.362;2023-07-31T03:59:41;30.10;;;20.50;;
10126;SDS011;13080;42.608;23.362;2023-07-31T04:02:07;28.48;;;20.10;;
10126;SDS011;13080;42.608;23.362;2023-07-31T04:04:34;28.45;;;19.60;;
10126;SDS011;13080;42.608;23.362;2023-07-31T04:07:01;30.42;;;20.80;;
10126;SDS011;13080;42.608;23.362;2023-07-31T04:09:28;32.45;;;21.15;;
10126;SDS011;13080;42.608;23.362;2023-07-31T04:11:55;31.88;;;19.98;;
10126;SDS011;13080;42.608;23.362;2023-07-31T04:14:21;32.80;;;20.55;;
10126;SDS011;13080;42.608;23.362;2023-07-31T04:16:51;29.98;;;20.40;;
10126;SDS011;13080;42.608;23.362;2023-07-31T04:19:18;31.90;;;20.48;;
10126;SDS011;13080;42.608;23.362;2023-07-31T04:21:45;31.67;;;21.08;;
10126;SDS011;13080;42.608;23.362;2023-07-31T04:24:11;31.38;;;20.90;;
10126;SDS011;13080;42.608;23.362;2023-07-31T04:26:38;31.42;;;20.50;;
10126;SDS011;13080;42.608;23.362;2023-07-31T04:29:05;31.67;;;21.27;;
10126;SDS011;13080;42.608;23.362;2023-07-31T04:31:33;25.58;;;16.98;;
10126;SDS011;13080;42.608;23.362;2023-07-31T04:34:01;28.15;;;19.15;;
10126;SDS011;13080;42.608;23.362;2023-07-31T04:36:28;27.38;;;18.70;;
10126;SDS011;13080;42.608;23.362;2023-07-31T04:38:54;27.92;;;18.05;;
10126;SDS011;13080;42.608;23.362;2023-07-31T04:41:21;26.80;;;17.10;;
10126;SDS011;13080;42.608;23.362;2023-07-31T04:43:48;24.48;;;16.25;;
10126;SDS011;13080;42.608;23.362;2023-07-31T04:46:15;23.35;;;15.80;;
10126;SDS011;13080;42.608;23.362;2023-07-31T04:48:42;19.63;;;14.15;;
10126;SDS011;13080;42.608;23.362;2023-07-31T04:51:10;20.25;;;15.25;;
10126;SDS011;13080;42.608;23.362;2023-07-31T04:53:36;19.27;;;13.48;;
10126;SDS011;13080;42.608;23.362;2023-07-31T04:56:03;19.08;;;13.88;;
10126;SDS011;13080;42.608;23.362;2023-07-31T04:58:30;16.80;;;12.65;;
10126;SDS011;13080;42.608;23.362;2023-07-31T05:00:57;18.73;;;13.45;;
10126;SDS011;13080;42.608;23.362;2023-07-31T05:03:24;15.48;;;11.93;;
10126;SDS011;13080;42.608;23.362;2023-07-31T05:05:50;17.55;;;11.82;;
10126;SDS011;13080;42.608;23.362;2023-07-31T05:08:18;16.80;;;12.85;;
10126;SDS011;13080;42.608;23.362;2023-07-31T05:10:45;16.30;;;12.50;;
10126;SDS011;13080;42.608;23.362;2023-07-31T05:13:12;16.85;;;13.30;;
10126;SDS011;13080;42.608;23.362;2023-07-31T05:15:39;18.00;;;12.25;;
10126;SDS011;13080;42.608;23.362;2023-07-31T05:18:07;15.65;;;12.68;;
10126;SDS011;13080;42.608;23.362;2023-07-31T05:20:34;15.68;;;12.60;;
10126;SDS011;13080;42.608;23.362;2023-07-31T05:23:01;18.95;;;13.57;;
10126;SDS011;13080;42.608;23.362;2023-07-31T05:25:29;16.15;;;12.80;;
10126;SDS011;13080;42.608;23.362;2023-07-31T05:27:56;16.10;;;11.68;;
10126;SDS011;13080;42.608;23.362;2023-07-31T05:30:22;14.32;;;11.02;;
10126;SDS011;13080;42.608;23.362;2023-07-31T05:32:49;14.35;;;11.02;;
10126;SDS011;13080;42.608;23.362;2023-07-31T05:35:16;14.18;;;10.48;;
10126;SDS011;13080;42.608;23.362;2023-07-31T05:37:43;14.93;;;10.95;;
10126;SDS011;13080;42.608;23.362;2023-07-31T05:40:09;14.10;;;11.02;;
10126;SDS011;13080;42.608;23.362;2023-07-31T05:42:38;14.07;;;9.88;;
10126;SDS011;13080;42.608;23.362;2023-07-31T05:45:05;14.77;;;10.88;;
10126;SDS011;13080;42.608;23.362;2023-07-31T05:47:33;14.68;;;10.77;;
10126;SDS011;13080;42.608;23.362;2023-07-31T05:49:59;10.60;;;9.13;;
10126;SDS011;13080;42.608;23.362;2023-07-31T05:52:26;12.63;;;10.15;;
10126;SDS011;13080;42.608;23.362;2023-07-31T05:54:54;10.52;;;8.27;;
10126;SDS011;13080;42.608;23.362;2023-07-31T05:57:20;9.60;;;8.60;;
10126;SDS011;13080;42.608;23.362;2023-07-31T05:59:48;11.18;;;8.13;;
10126;SDS011;13080;42.608;23.362;2023-07-31T06:02:15;12.52;;;8.32;;
10126;SDS011;13080;42.608;23.362;2023-07-31T06:04:42;9.45;;;7.80;;
10126;SDS011;13080;42.608;23.362;2023-07-31T06:07:09;11.77;;;7.90;;
10126;SDS011;13080;42.608;23.362;2023-07-31T06:09:36;10.88;;;7.22;;
10126;SDS011;13080;42.608;23.362;2023-07-31T06:12:03;10.77;;;8.07;;
10126;SDS011;13080;42.608;23.362;2023-07-31T06:14:30;9.40;;;8.05;;
10126;SDS011;13080;42.608;23.362;2023-07-31T06:16:58;9.82;;;7.28;;
10126;SDS011;13080;42.608;23.362;2023-07-31T06:19:25;7.47;;;6.20;;
10126;SDS011;13080;42.608;23.362;2023-07-31T06:21:52;10.35;;;7.03;;
10126;SDS011;13080;42.608;23.362;2023-07-31T06:24:18;8.65;;;7.13;;
10126;SDS011;13080;42.608;23.362;2023-07-31T06:26:46;8.65;;;5.90;;
10126;SDS011;13080;42.608;23.362;2023-07-31T06:29:13;6.50;;;5.35;;
10126;SDS011;13080;42.608;23.362;2023-07-31T06:31:40;5.70;;;4.63;;
10126;SDS011;13080;42.608;23.362;2023-07-31T06:34:08;7.60;;;4.90;;
10126;SDS011;13080;42.608;23.362;2023-07-31T06:36:35;7.55;;;5.22;;
10126;SDS011;13080;42.608;23.362;2023-07-31T06:39:02;8.80;;;4.82;;
10126;SDS011;13080;42.608;23.362;2023-07-31T06:41:29;7.07;;;5.00;;
10126;SDS011;13080;42.608;23.362;2023-07-31T06:43:55;7.07;;;4.13;;
10126;SDS011;13080;42.608;23.362;2023-07-31T06:46:22;4.97;;;4.18;;
10126;SDS011;13080;42.608;23.362;2023-07-31T06:48:49;4.68;;;3.53;;
10126;SDS011;13080;42.608;23.362;2023-07-31T06:51:17;4.18;;;3.10;;
10126;SDS011;13080;42.608;23.362;2023-07-31T06:53:44;3.88;;;3.47;;
10126;SDS011;13080;42.608;23.362;2023-07-31T06:56:11;4.70;;;3.35;;
10126;SDS011;13080;42.608;23.362;2023-07-31T06:58:38;6.80;;;3.40;;
10126;SDS011;13080;42.608;23.362;2023-07-31T07:01:04;4.75;;;3.60;;
10126;SDS011;13080;42.608;23.362;2023-07-31T07:03:31;4.10;;;3.55;;
10126;SDS011;13080;42.608;23.362;2023-07-31T07:05:58;5.18;;;3.35;;
10126;SDS011;13080;42.608;23.362;2023-07-31T07:08:27;4.70;;;3.20;;
10126;SDS011;13080;42.608;23.362;2023-07-31T07:10:53;3.85;;;3.30;;
10126;SDS011;13080;42.608;23.362;2023-07-31T07:13:20;5.22;;;3.63;;
10126;SDS011;13080;42.608;23.362;2023-07-31T07:15:48;4.55;;;3.53;;
10126;SDS011;13080;42.608;23.362;2023-07-31T07:18:15;3.67;;;3.03;;
10126;SDS011;13080;42.608;23.362;2023-07-31T07:20:45;5.38;;;3.10;;
10126;SDS011;13080;42.608;23.362;2023-07-31T07:23:13;3.75;;;2.92;;
10126;SDS011;13080;42.608;23.362;2023-07-31T07:25:41;6.22;;;3.38;;
10126;SDS011;13080;42.608;23.362;2023-07-31T07:28:08;4.15;;;2.83;;
10126;SDS011;13080;42.608;23.362;2023-07-31T07:30:35;3.17;;;2.45;;
10126;SDS011;13080;42.608;23.362;2023-07-31T07:33:01;3.47;;;2.80;;
10126;SDS011;13080;42.608;23.362;2023-07-31T07:35:28;2.88;;;2.50;;
10126;SDS011;13080;42.608;23.362;2023-07-31T07:37:55;5.55;;;2.58;;
10126;SDS011;13080;42.608;23.362;2023-07-31T07:40:23;3.65;;;2.60;;
10126;SDS011;13080;42.608;23.362;2023-07-31T07:42:51;2.78;;;2.25;;
10126;SDS011;13080;42.608;23.362;2023-07-31T07:45:17;3.38;;;2.47;;
10126;SDS011;13080;42.608;23.362;2023-07-31T07:47:44;2.25;;;1.92;;
10126;SDS011;13080;42.608;23.362;2023-07-31T07:50:11;3.10;;;2.25;;
10126;SDS011;13080;42.608;23.362;2023-07-31T07:52:38;2.80;;;2.25;;
10126;SDS011;13080;42.608;23.362;2023-07-31T07:55:05;4.55;;;2.55;;
10126;SDS011;13080;42.608;23.362;2023-07-31T07:57:32;4.00;;;2.67;;
10126;SDS011;13080;42.608;23.362;2023-07-31T08:00:00;3.75;;;2.42;;
10126;SDS011;13080;42.608;23.362;2023-07-31T08:02:27;4.53;;;3.05;;
10126;SDS011;13080;42.608;23.362;2023-07-31T08:04:54;2.92;;;2.70;;
10126;SDS011;13080;42.608;23.362;2023-07-31T08:07:20;3.22;;;2.40;;
10126;SDS011;13080;42.608;23.362;2023-07-31T08:09:47;3.65;;;2.00;;
10126;SDS011;13080;42.608;23.362;2023-07-31T08:12:14;2.63;;;2.13;;
10126;SDS011;13080;42.608;23.362;2023-07-31T08:14:41;4.20;;;2.63;;
10126;SDS011;13080;42.608;23.362;2023-07-31T08:17:09;14.23;;;3.42;;
10126;SDS011;13080;42.608;23.362;2023-07-31T08:19:35;3.97;;;2.40;;
10126;SDS011;13080;42.608;23.362;2023-07-31T08:22:02;3.30;;;2.42;;
10126;SDS011;13080;42.608;23.362;2023-07-31T08:24:29;4.57;;;2.10;;
10126;SDS011;13080;42.608;23.362;2023-07-31T08:26:56;2.45;;;2.15;;
10126;SDS011;13080;42.608;23.362;2023-07-31T08:29:23;3.50;;;2.22;;
10126;SDS011;13080;42.608;23.362;2023-07-31T08:31:51;3.20;;;2.33;;
10126;SDS011;13080;42.608;23.362;2023-07-31T08:34:19;2.60;;;2.38;;
10126;SDS011;13080;42.608;23.362;2023-07-31T08:36:45;4.28;;;2.70;;
10126;SDS011;13080;42.608;23.362;2023-07-31T08:39:12;3.60;;;2.35;;
10126;SDS011;13080;42.608;23.362;2023-07-31T08:41:39;3.17;;;2.65;;
10126;SDS011;13080;42.608;23.362;2023-07-31T08:44:06;3.33;;;2.60;;
10126;SDS011;13080;42.608;23.362;2023-07-31T08:46:33;3.20;;;2.35;;
10126;SDS011;13080;42.608;23.362;2023-07-31T08:49:01;3.78;;;1.90;;
10126;SDS011;13080;42.608;23.362;2023-07-31T08:51:33;5.80;;;1.83;;
10126;SDS011;13080;42.608;23.362;2023-07-31T08:54:00;8.50;;;2.45;;
10126;SDS011;13080;42.608;23.362;2023-07-31T08:56:29;4.82;;;2.50;;
10126;SDS011;13080;42.608;23.362;2023-07-31T08:58:58;2.35;;;2.05;;
10126;SDS011;13080;42.608;23.362;2023-07-31T09:01:28;4.82;;;2.15;;
10126;SDS011;13080;42.608;23.362;2023-07-31T09:03:56;2.75;;;2.08;;
10126;SDS011;13080;42.608;23.362;2023-07-31T09:06:26;2.53;;;2.20;;
10126;SDS011;13080;42.608;23.362;2023-07-31T09:08:56;2.80;;;2.30;;
10126;SDS011;13080;42.608;23.362;2023-07-31T09:11:23;2.85;;;2.35;;
10126;SDS011;13080;42.608;23.362;2023-07-31T09:13:52;2.20;;;1.75;;
10126;SDS011;13080;42.608;23.362;2023-07-31T09:16:26;4.07;;;2.30;;
10126;SDS011;13080;42.608;23.362;2023-07-31T09:18:56;3.00;;;2.13;;
10126;SDS011;13080;42.608;23.362;2023-07-31T09:21:23;2.85;;;1.98;;
10126;SDS011;13080;42.608;23.362;2023-07-31T09:23:51;4.45;;;2.20;;
10126;SDS011;13080;42.608;23.362;2023-07-31T09:26:29;3.53;;;2.10;;
10126;SDS011;13080;42.608;23.362;2023-07-31T09:28:57;2.63;;;2.08;;
10126;SDS011;13080;42.608;23.362;2023-07-31T09:31:38;2.25;;;1.73;;
10126;SDS011;13080;42.608;23.362;2023-07-31T09:34:06;2.20;;;1.67;;
10126;SDS011;13080;42.608;23.362;2023-07-31T09:36:39;4.25;;;2.03;;
10126;SDS011;13080;42.608;23.362;2023-07-31T09:39:08;3.30;;;2.42;;
10126;SDS011;13080;42.608;23.362;2023-07-31T09:41:37;4.20;;;2.47;;
10126;SDS011;13080;42.608;23.362;2023-07-31T09:44:05;2.28;;;1.88;;
10126;SDS011;13080;42.608;23.362;2023-07-31T09:46:32;2.60;;;2.05;;
10126;SDS011;13080;42.608;23.362;2023-07-31T09:49:05;3.35;;;2.40;;
10126;SDS011;13080;42.608;23.362;2023-07-31T09:51:34;2.97;;;2.00;;
10126;SDS011;13080;42.608;23.362;2023-07-31T09:54:04;2.80;;;2.15;;
10126;SDS011;13080;42.608;23.362;2023-07-31T09:56:37;3.05;;;2.65;;
10126;SDS011;13080;42.608;23.362;2023-07-31T09:59:08;3.08;;;2.20;;
10126;SDS011;13080;42.608;23.362;2023-07-31T10:01:41;4.82;;;2.65;;
10126;SDS011;13080;42.608;23.362;2023-07-31T10:04:08;3.80;;;2.03;;
10126;SDS011;13080;42.608;23.362;2023-07-31T10:06:36;3.20;;;2.28;;
10126;SDS011;13080;42.608;23.362;2023-07-31T10:09:05;2.58;;;2.03;;
10126;SDS011;13080;42.608;23.362;2023-07-31T10:11:34;2.88;;;2.58;;
10126;SDS011;13080;42.608;23.362;2023-07-31T10:14:05;3.72;;;2.35;;
10126;SDS011;13080;42.608;23.362;2023-07-31T10:16:33;4.45;;;2.10;;
10126;SDS011;13080;42.608;23.362;2023-07-31T10:19:02;4.53;;;2.38;;
10126;SDS011;13080;42.608;23.362;2023-07-31T10:21:29;4.45;;;2.45;;
10126;SDS011;13080;42.608;23.362;2023-07-31T10:24:01;2.88;;;2.00;;
10126;SDS011;13080;42.608;23.362;2023-07-31T10:26:29;3.00;;;2.15;;
10126;SDS011;13080;42.608;23.362;2023-07-31T10:28:59;2.67;;;2.00;;
10126;SDS011;13080;42.608;23.362;2023-07-31T10:31:26;2.90;;;2.10;;
10126;SDS011;13080;42.608;23.362;2023-07-31T10:33:54;3.50;;;2.05;;
10126;SDS011;13080;42.608;23.362;2023-07-31T10:36:22;2.28;;;1.85;;
10126;SDS011;13080;42.608;23.362;2023-07-31T10:38:49;2.63;;;2.00;;
10126;SDS011;13080;42.608;23.362;2023-07-31T10:41:16;3.45;;;1.70;;
10126;SDS011;13080;42.608;23.362;2023-07-31T10:43:45;3.40;;;1.77;;
10126;SDS011;13080;42.608;23.362;2023-07-31T10:46:14;3.55;;;2.05;;
10126;SDS011;13080;42.608;23.362;2023-07-31T10:48:41;4.00;;;1.73;;
10126;SDS011;13080;42.608;23.362;2023-07-31T10:51:09;3.33;;;1.83;;
10126;SDS011;13080;42.608;23.362;2023-07-31T10:53:37;2.33;;;1.70;;
10126;SDS011;13080;42.608;23.362;2023-07-31T10:56:05;3.28;;;1.75;;
10126;SDS011;13080;42.608;23.362;2023-07-31T10:58:33;2.22;;;1.90;;
10126;SDS011;13080;42.608;23.362;2023-07-31T11:01:01;2.40;;;1.70;;
10126;SDS011;13080;42.608;23.362;2023-07-31T11:06:13;3.03;;;1.70;;
10126;SDS011;13080;42.608;23.362;2023-07-31T11:08:41;4.90;;;1.98;;
10126;SDS011;13080;42.608;23.362;2023-07-31T11:11:09;2.45;;;1.80;;
10126;SDS011;13080;42.608;23.362;2023-07-31T11:13:41;2.05;;;1.60;;
10126;SDS011;13080;42.608;23.362;2023-07-31T11:16:09;5.45;;;1.60;;
10126;SDS011;13080;42.608;23.362;2023-07-31T11:18:38;2.10;;;1.70;;
10126;SDS011;13080;42.608;23.362;2023-07-31T11:21:07;1.83;;;1.38;;
10126;SDS011;13080;42.608;23.362;2023-07-31T11:23:36;1.85;;;1.58;;
10126;SDS011;13080;42.608;23.362;2023-07-31T11:26:04;3.95;;;1.90;;
10126;SDS011;13080;42.608;23.362;2023-07-31T11:28:32;1.85;;;1.40;;
10126;SDS011;13080;42.608;23.362;2023-07-31T11:30:59;1.80;;;1.50;;
10126;SDS011;13080;42.608;23.362;2023-07-31T11:33:26;4.20;;;1.70;;
10126;SDS011;13080;42.608;23.362;2023-07-31T11:35:53;2.03;;;1.50;;
10126;SDS011;13080;42.608;23.362;2023-07-31T11:38:25;2.33;;;1.52;;
10126;SDS011;13080;42.608;23.362;2023-07-31T11:40:53;1.92;;;1.50;;
10126;SDS011;13080;42.608;23.362;2023-07-31T11:43:20;1.55;;;1.35;;
10126;SDS011;13080;42.608;23.362;2023-07-31T11:45:48;2.30;;;1.27;;
10126;SDS011;13080;42.608;23.362;2023-07-31T11:48:19;2.63;;;1.58;;
10126;SDS011;13080;42.608;23.362;2023-07-31T11:50:47;1.80;;;1.40;;
10126;SDS011;13080;42.608;23.362;2023-07-31T11:53:16;3.55;;;1.42;;
10126;SDS011;13080;42.608;23.362;2023-07-31T11:55:46;1.80;;;1.55;;
10126;SDS011;13080;42.608;23.362;2023-07-31T11:58:13;3.38;;;1.98;;
10126;SDS011;13080;42.608;23.362;2023-07-31T12:00:42;3.80;;;1.80;;
10126;SDS011;13080;42.608;23.362;2023-07-31T12:03:09;2.20;;;1.85;;
10126;SDS011;13080;42.608;23.362;2023-07-31T12:05:37;3.38;;;2.25;;
10126;SDS011;13080;42.608;23.362;2023-07-31T12:08:08;2.90;;;2.38;;
10126;SDS011;13080;42.608;23.362;2023-07-31T12:10:37;2.67;;;2.17;;
10126;SDS011;13080;42.608;23.362;2023-07-31T12:13:07;2.88;;;2.13;;
10126;SDS011;13080;42.608;23.362;2023-07-31T12:15:39;4.60;;;2.17;;
10126;SDS011;13080;42.608;23.362;2023-07-31T12:18:07;4.85;;;2.30;;
10126;SDS011;13080;42.608;23.362;2023-07-31T12:20:39;2.72;;;1.90;;
10126;SDS011;13080;42.608;23.362;2023-07-31T12:23:07;2.88;;;2.33;;
10126;SDS011;13080;42.608;23.362;2023-07-31T12:25:33;2.95;;;2.63;;
10126;SDS011;13080;42.608;23.362;2023-07-31T12:28:04;3.03;;;2.22;;
10126;SDS011;13080;42.608;23.362;2023-07-31T12:30:37;4.43;;;2.72;;
10126;SDS011;13080;42.608;23.362;2023-07-31T12:33:05;4.88;;;2.53;;
10126;SDS011;13080;42.608;23.362;2023-07-31T12:35:36;3.47;;;2.80;;
10126;SDS011;13080;42.608;23.362;2023-07-31T12:38:04;3.75;;;2.70;;
10126;SDS011;13080;42.608;23.362;2023-07-31T12:40:30;4.95;;;4.45;;
10126;SDS011;13080;42.608;23.362;2023-07-31T12:42:57;5.78;;;4.57;;
10126;SDS011;13080;42.608;23.362;2023-07-31T12:45:25;6.00;;;4.10;;
10126;SDS011;13080;42.608;23.362;2023-07-31T12:47:52;5.43;;;4.18;;
10126;SDS011;13080;42.608;23.362;2023-07-31T12:50:19;6.47;;;4.80;;
10126;SDS011;13080;42.608;23.362;2023-07-31T12:52:46;6.90;;;4.40;;
10126;SDS011;13080;42.608;23.362;2023-07-31T12:55:12;6.03;;;4.80;;
10126;SDS011;13080;42.608;23.362;2023-07-31T12:57:40;5.15;;;4.65;;
10126;SDS011;13080;42.608;23.362;2023-07-31T13:00:07;4.93;;;4.43;;
10126;SDS011;13080;42.608;23.362;2023-07-31T13:02:36;5.18;;;4.30;;
10126;SDS011;13080;42.608;23.362;2023-07-31T13:05:03;6.15;;;4.40;;
10126;SDS011;13080;42.608;23.362;2023-07-31T13:07:30;5.25;;;3.80;;
10126;SDS011;13080;42.608;23.362;2023-07-31T13:09:57;5.57;;;4.57;;
10126;SDS011;13080;42.608;23.362;2023-07-31T13:12:23;4.40;;;3.83;;
10126;SDS011;13080;42.608;23.362;2023-07-31T13:14:50;6.25;;;4.03;;
10126;SDS011;13080;42.608;23.362;2023-07-31T13:17:18;5.25;;;4.70;;
10126;SDS011;13080;42.608;23.362;2023-07-31T13:19:46;8.15;;;5.50;;
10126;SDS011;13080;42.608;23.362;2023-07-31T13:22:12;5.72;;;5.13;;
10126;SDS011;13080;42.608;23.362;2023-07-31T13:24:39;6.07;;;5.20;;
10126;SDS011;13080;42.608;23.362;2023-07-31T13:27:06;6.28;;;5.20;;
10126;SDS011;13080;42.608;23.362;2023-07-31T13:29:32;5.50;;;4.95;;
10126;SDS011;13080;42.608;23.362;2023-07-31T13:31:59;6.50;;;5.45;;
10126;SDS011;13080;42.608;23.362;2023-07-31T13:34:26;6.53;;;5.30;;
10126;SDS011;13080;42.608;23.362;2023-07-31T13:36:55;5.30;;;4.80;;
10126;SDS011;13080;42.608;23.362;2023-07-31T13:39:21;5.43;;;4.75;;
10126;SDS011;13080;42.608;23.362;2023-07-31T13:41:48;7.20;;;4.90;;
10126;SDS011;13080;42.608;23.362;2023-07-31T13:44:15;5.00;;;4.50;;
10126;SDS011;13080;42.608;23.362;2023-07-31T13:46:42;6.32;;;4.40;;
10126;SDS011;13080;42.608;23.362;2023-07-31T13:49:08;4.72;;;4.22;;
10126;SDS011;13080;42.608;23.362;2023-07-31T13:51:35;4.70;;;4.20;;
10126;SDS011;13080;42.608;23.362;2023-07-31T13:54:05;6.15;;;4.15;;
10126;SDS011;13080;42.608;23.362;2023-07-31T13:56:33;5.53;;;3.83;;
10126;SDS011;13080;42.608;23.362;2023-07-31T13:58:59;4.82;;;3.75;;
10126;SDS011;13080;42.608;23.362;2023-07-31T14:01:27;4.30;;;3.90;;
10126;SDS011;13080;42.608;23.362;2023-07-31T14:03:53;3.60;;;3.30;;
10126;SDS011;13080;42.608;23.362;2023-07-31T14:06:20;3.67;;;3.20;;
10126;SDS011;13080;42.608;23.362;2023-07-31T14:08:47;5.72;;;4.07;;
10126;SDS011;13080;42.608;23.362;2023-07-31T14:11:15;4.63;;;3.95;;
10126;SDS011;13080;42.608;23.362;2023-07-31T14:13:42;3.83;;;3.30;;
10126;SDS011;13080;42.608;23.362;2023-07-31T14:16:09;7.70;;;3.92;;
10126;SDS011;13080;42.608;23.362;2023-07-31T14:18:35;4.00;;;3.53;;
10126;SDS011;13080;42.608;23.362;2023-07-31T14:21:02;3.65;;;3.30;;
10126;SDS011;13080;42.608;23.362;2023-07-31T14:23:29;3.65;;;3.20;;
10126;SDS011;13080;42.608;23.362;2023-07-31T14:25:56;5.32;;;3.22;;
10126;SDS011;13080;42.608;23.362;2023-07-31T14:28:24;4.35;;;3.50;;
10126;SDS011;13080;42.608;23.362;2023-07-31T14:30:51;4.05;;;3.65;;
10126;SDS011;13080;42.608;23.362;2023-07-31T14:33:18;4.07;;;3.35;;